createdAt,value
2019-04-26T00:00:36.914Z,18.65
2019-04-26T00:01:36.907Z,18.67
2019-04-26T00:02:36.894Z,18.63
2019-04-26T00:03:36.918Z,18.60
2019-04-26T00:04:36.874Z,18.65
2019-04-26T00:05:37.403Z,18.58
2019-04-26T00:06:36.851Z,18.57
2019-04-26T00:07:36.840Z,18.58
2019-04-26T00:08:36.856Z,18.63
2019-04-26T00:09:36.812Z,18.58
2019-04-26T00:10:36.801Z,18.66
2019-04-26T00:11:36.791Z,18.60
2019-04-26T00:12:36.779Z,18.62
2019-04-26T00:13:36.812Z,18.60
2019-04-26T00:14:36.763Z,18.58
2019-04-26T00:15:36.753Z,18.57
2019-04-26T00:16:36.735Z,18.52
2019-04-26T00:17:36.729Z,18.55
2019-04-26T00:18:39.424Z,18.55
2019-04-26T00:19:36.701Z,18.55
2019-04-26T00:20:36.696Z,18.52
2019-04-26T00:21:36.689Z,18.52
2019-04-26T00:22:36.668Z,18.51
2019-04-26T00:23:36.719Z,18.48
2019-04-26T00:24:36.649Z,18.51
2019-04-26T00:25:36.641Z,18.44
2019-04-26T00:26:36.623Z,18.45
2019-04-26T00:27:36.612Z,18.50
2019-04-26T00:28:36.606Z,18.41
2019-04-26T00:29:36.621Z,18.48
2019-04-26T00:30:36.580Z,18.47
2019-04-26T00:31:36.574Z,18.45
2019-04-26T00:32:36.565Z,18.41
2019-04-26T00:33:36.551Z,18.47
2019-04-26T00:34:36.567Z,18.47
2019-04-26T00:35:46.822Z,18.41
2019-04-26T00:36:37.514Z,18.47
2019-04-26T00:37:36.508Z,18.37
2019-04-26T00:38:36.490Z,18.33
2019-04-26T00:39:36.522Z,18.36
2019-04-26T00:40:36.478Z,18.35
2019-04-26T00:41:36.456Z,18.35
2019-04-26T00:42:36.453Z,18.39
2019-04-26T00:43:36.433Z,18.41
2019-04-26T00:44:36.455Z,18.39
2019-04-26T00:45:36.419Z,18.37
2019-04-26T00:46:36.413Z,18.37
2019-04-26T00:47:36.399Z,18.35
2019-04-26T00:48:36.425Z,18.29
2019-04-26T00:49:43.556Z,18.33
2019-04-26T00:50:37.358Z,18.35
2019-04-26T00:51:36.353Z,18.37
2019-04-26T00:52:36.355Z,18.25
2019-04-26T00:53:36.336Z,18.29
2019-04-26T00:54:36.352Z,18.29
2019-04-26T00:55:36.305Z,18.27
2019-04-26T00:56:36.295Z,18.30
2019-04-26T00:57:36.289Z,18.26
2019-04-26T00:58:36.268Z,18.21
2019-04-26T00:59:36.320Z,18.26
2019-04-26T01:00:36.248Z,18.21
2019-04-26T01:01:36.242Z,18.21
2019-04-26T01:02:36.228Z,18.21
2019-04-26T01:03:36.216Z,18.36
2019-04-26T01:04:36.204Z,18.26
2019-04-26T01:05:36.244Z,18.26
2019-04-26T01:06:36.179Z,18.25
2019-04-26T01:07:36.173Z,18.14
2019-04-26T01:08:36.170Z,18.23
2019-04-26T01:09:36.144Z,18.25
2019-04-26T01:10:36.175Z,18.23
2019-04-26T01:11:36.123Z,18.27
2019-04-26T01:12:36.116Z,18.23
2019-04-26T01:13:36.104Z,18.21
2019-04-26T01:14:36.107Z,18.20
2019-04-26T01:15:36.119Z,18.18
2019-04-26T01:16:36.074Z,18.15
2019-04-26T01:17:36.060Z,18.07
2019-04-26T01:18:36.049Z,18.10
2019-04-26T01:19:36.034Z,18.17
2019-04-26T01:20:36.070Z,18.15
2019-04-26T01:21:36.015Z,18.10
2019-04-26T01:22:36.005Z,18.07
2019-04-26T01:23:35.997Z,18.10
2019-04-26T01:24:35.982Z,18.07
2019-04-26T01:25:36.006Z,18.00
2019-04-26T01:26:35.957Z,18.07
2019-04-26T01:27:35.949Z,18.00
2019-04-26T01:28:35.932Z,18.03
2019-04-26T01:29:35.922Z,18.03
2019-04-26T01:30:35.950Z,18.05
2019-04-26T01:31:35.903Z,18.05
2019-04-26T01:32:35.889Z,18.07
2019-04-26T01:33:35.885Z,18.00
2019-04-26T01:34:35.867Z,17.97
2019-04-26T01:35:35.897Z,17.95
2019-04-26T01:36:35.864Z,17.99
2019-04-26T01:37:35.837Z,17.96
2019-04-26T01:38:35.828Z,17.90
2019-04-26T01:39:35.818Z,17.97
2019-04-26T01:40:35.837Z,17.90
2019-04-26T01:41:35.788Z,17.93
2019-04-26T01:42:35.785Z,17.90
2019-04-26T01:43:35.770Z,17.87
2019-04-26T01:44:35.757Z,17.86
2019-04-26T01:45:35.757Z,17.86
2019-04-26T01:46:35.769Z,17.89
2019-04-26T01:47:35.739Z,17.86
2019-04-26T01:48:35.726Z,17.86
2019-04-26T01:49:35.700Z,17.84
2019-04-26T01:50:35.696Z,17.81
2019-04-26T01:51:35.711Z,17.78
2019-04-26T01:52:35.693Z,17.78
2019-04-26T01:53:35.659Z,17.77
2019-04-26T01:54:35.649Z,17.81
2019-04-26T01:55:35.671Z,17.74
2019-04-26T01:56:35.664Z,17.81
2019-04-26T01:57:35.610Z,17.72
2019-04-26T01:58:35.598Z,17.72
2019-04-26T01:59:35.601Z,17.77
2019-04-26T02:00:35.582Z,17.77
2019-04-26T02:01:35.597Z,17.78
2019-04-26T02:02:35.559Z,17.75
2019-04-26T02:03:35.547Z,17.75
2019-04-26T02:04:35.537Z,17.74
2019-04-26T02:05:35.522Z,17.64
2019-04-26T02:06:35.548Z,17.72
2019-04-26T02:07:35.499Z,17.64
2019-04-26T02:08:35.487Z,17.74
2019-04-26T02:09:35.476Z,17.71
2019-04-26T02:10:35.466Z,17.75
2019-04-26T02:11:35.498Z,17.71
2019-04-26T02:12:35.446Z,17.71
2019-04-26T02:13:35.433Z,17.64
2019-04-26T02:14:35.424Z,17.71
2019-04-26T02:15:35.420Z,17.68
2019-04-26T02:16:35.437Z,17.64
2019-04-26T02:17:35.391Z,17.66
2019-04-26T02:18:35.380Z,17.63
2019-04-26T02:19:35.368Z,17.68
2019-04-26T02:20:35.353Z,17.70
2019-04-26T02:21:35.397Z,17.55
2019-04-26T02:22:35.337Z,17.63
2019-04-26T02:23:35.329Z,17.59
2019-04-26T02:24:35.320Z,17.66
2019-04-26T02:25:35.308Z,17.59
2019-04-26T02:26:35.325Z,17.63
2019-04-26T02:27:35.286Z,17.58
2019-04-26T02:28:35.272Z,17.55
2019-04-26T02:29:35.257Z,17.46
2019-04-26T02:30:36.738Z,17.58
2019-04-26T02:31:37.577Z,17.52
2019-04-26T02:32:36.940Z,17.56
2019-04-26T02:33:36.733Z,17.54
2019-04-26T02:34:37.628Z,17.58
2019-04-26T02:35:35.874Z,17.51
2019-04-26T02:36:55.349Z,17.55
2019-04-26T02:37:37.940Z,17.58
2019-04-26T02:38:36.677Z,17.51
2019-04-26T02:39:35.996Z,17.54
2019-04-26T02:40:36.751Z,17.46
2019-04-26T02:41:35.707Z,17.49
2019-04-26T02:42:36.831Z,17.43
2019-04-26T02:43:35.857Z,17.55
2019-04-26T02:44:36.508Z,17.51
2019-04-26T02:45:36.786Z,17.41
2019-04-26T02:46:36.642Z,17.51
2019-04-26T02:47:36.912Z,17.48
2019-04-26T02:48:36.532Z,17.40
2019-04-26T02:49:36.608Z,17.48
2019-04-26T02:50:36.582Z,17.48
2019-04-26T02:51:36.441Z,17.33
2019-04-26T02:52:35.902Z,17.38
2019-04-26T02:53:36.567Z,17.34
2019-04-26T02:54:36.531Z,17.34
2019-04-26T02:55:41.776Z,17.44
2019-04-26T02:56:37.754Z,17.33
2019-04-26T02:57:36.498Z,17.36
2019-04-26T02:58:35.999Z,17.36
2019-04-26T02:59:37.784Z,17.37
2019-04-26T03:00:35.864Z,17.40
2019-04-26T03:01:36.644Z,17.34
2019-04-26T03:02:36.725Z,17.41
2019-04-26T03:03:36.350Z,17.38
2019-04-26T03:04:36.445Z,17.36
2019-04-26T03:05:35.755Z,17.37
2019-04-26T03:06:36.902Z,17.37
2019-04-26T03:07:35.897Z,17.36
2019-04-26T03:08:35.835Z,17.36
2019-04-26T03:09:35.611Z,17.34
2019-04-26T03:10:36.635Z,17.37
2019-04-26T03:11:35.129Z,17.33
2019-04-26T03:12:36.210Z,17.37
2019-04-26T03:13:36.328Z,17.34
2019-04-26T03:14:36.510Z,17.34
2019-04-26T03:15:35.798Z,17.34
2019-04-26T03:16:36.793Z,17.34
2019-04-26T03:17:36.202Z,17.37
2019-04-26T03:18:35.502Z,17.33
2019-04-26T03:19:36.255Z,17.31
2019-04-26T03:20:36.162Z,17.23
2019-04-26T03:21:36.412Z,17.26
2019-04-26T03:22:35.647Z,17.22
2019-04-26T03:23:53.300Z,17.23
2019-04-26T03:24:37.192Z,17.26
2019-04-26T03:25:36.162Z,17.21
2019-04-26T03:26:35.611Z,17.23
2019-04-26T03:27:35.732Z,17.26
2019-04-26T03:28:36.896Z,17.28
2019-04-26T03:29:36.611Z,17.30
2019-04-26T03:30:41.509Z,17.31
2019-04-26T03:31:42.895Z,17.21
2019-04-26T03:32:40.636Z,17.19
2019-04-26T03:33:42.075Z,17.21
2019-04-26T03:34:40.251Z,17.21
2019-04-26T03:35:43.924Z,17.23
2019-04-26T03:36:37.927Z,17.22
2019-04-26T03:37:36.539Z,17.16
2019-04-26T03:38:36.214Z,17.21
2019-04-26T03:39:36.607Z,17.23
2019-04-26T03:40:36.388Z,17.19
2019-04-26T03:41:36.322Z,17.18
2019-04-26T03:42:36.445Z,17.11
2019-04-26T03:43:36.313Z,17.15
2019-04-26T03:44:35.029Z,17.11
2019-04-26T03:45:35.207Z,17.14
2019-04-26T03:46:35.528Z,17.08
2019-04-26T03:47:37.662Z,17.12
2019-04-26T03:48:37.046Z,17.15
2019-04-26T03:49:36.075Z,17.11
2019-04-26T03:50:35.865Z,17.15
2019-04-26T03:51:35.702Z,17.06
2019-04-26T03:52:35.506Z,17.12
2019-04-26T03:53:35.552Z,17.16
2019-04-26T03:54:35.611Z,17.06
2019-04-26T03:55:35.777Z,17.04
2019-04-26T03:56:35.905Z,17.01
2019-04-26T03:57:36.329Z,17.07
2019-04-26T03:58:35.883Z,17.00
2019-04-26T03:59:35.207Z,17.01
2019-04-26T04:00:34.970Z,17.03
2019-04-26T04:01:35.424Z,17.00
2019-04-26T04:02:36.629Z,16.96
2019-04-26T04:03:35.885Z,17.00
2019-04-26T04:04:36.918Z,17.00
2019-04-26T04:05:35.997Z,16.98
2019-04-26T04:06:52.450Z,17.00
2019-04-26T04:07:39.178Z,17.04
2019-04-26T04:08:34.183Z,17.03
2019-04-26T04:09:34.169Z,17.04
2019-04-26T04:10:34.119Z,17.07
2019-04-26T04:11:34.242Z,16.97
2019-04-26T04:12:34.096Z,17.08
2019-04-26T04:13:34.227Z,17.04
2019-04-26T04:14:34.104Z,17.03
2019-04-26T04:15:34.068Z,17.15
2019-04-26T04:16:34.060Z,17.03
2019-04-26T04:17:34.043Z,17.15
2019-04-26T04:18:34.027Z,17.11
2019-04-26T04:19:34.057Z,17.07
2019-04-26T04:20:34.012Z,16.98
2019-04-26T04:21:34.002Z,17.11
2019-04-26T04:22:33.986Z,17.08
2019-04-26T04:23:33.991Z,17.04
2019-04-26T04:24:33.996Z,17.07
2019-04-26T04:25:33.956Z,17.04
2019-04-26T04:26:33.937Z,17.07
2019-04-26T04:27:33.930Z,17.01
2019-04-26T04:28:33.924Z,16.98
2019-04-26T04:29:42.206Z,17.06
2019-04-26T04:30:34.921Z,17.00
2019-04-26T04:31:33.899Z,17.08
2019-04-26T04:32:33.870Z,16.98
2019-04-26T04:33:33.877Z,17.00
2019-04-26T04:34:33.852Z,16.97
2019-04-26T04:35:33.877Z,17.01
2019-04-26T04:36:33.828Z,16.96
2019-04-26T04:37:33.821Z,16.98
2019-04-26T04:38:33.802Z,16.96
2019-04-26T04:39:33.793Z,16.98
2019-04-26T04:40:33.818Z,17.07
2019-04-26T04:41:33.779Z,16.97
2019-04-26T04:42:33.830Z,17.07
2019-04-26T04:43:33.824Z,16.97
2019-04-26T04:44:33.743Z,17.03
2019-04-26T04:45:33.762Z,16.98
2019-04-26T04:46:33.724Z,17.03
2019-04-26T04:47:33.713Z,17.07
2019-04-26T04:48:33.690Z,17.11
2019-04-26T04:49:33.682Z,17.01
2019-04-26T04:50:33.704Z,17.04
2019-04-26T04:51:33.674Z,17.07
2019-04-26T04:52:33.654Z,17.06
2019-04-26T04:53:33.637Z,17.16
2019-04-26T04:54:33.629Z,17.07
2019-04-26T04:55:33.646Z,17.06
2019-04-26T04:56:33.603Z,17.06
2019-04-26T04:57:33.592Z,17.14
2019-04-26T04:58:33.601Z,17.11
2019-04-26T04:59:33.572Z,17.12
2019-04-26T05:00:33.586Z,17.08
2019-04-26T05:01:33.566Z,17.00
2019-04-26T05:02:33.556Z,17.08
2019-04-26T05:03:33.524Z,17.11
2019-04-26T05:04:33.511Z,17.07
2019-04-26T05:05:33.536Z,17.12
2019-04-26T05:06:33.491Z,17.04
2019-04-26T05:07:33.486Z,17.06
2019-04-26T05:08:33.483Z,17.06
2019-04-26T05:09:33.488Z,17.18
2019-04-26T05:10:33.497Z,17.04
2019-04-26T05:11:33.431Z,17.06
2019-04-26T05:12:33.429Z,17.14
2019-04-26T05:13:33.414Z,17.04
2019-04-26T05:14:33.408Z,17.07
2019-04-26T05:15:33.430Z,17.07
2019-04-26T05:16:33.381Z,17.07
2019-04-26T05:17:33.368Z,17.12
2019-04-26T05:18:33.357Z,17.01
2019-04-26T05:19:33.341Z,17.04
2019-04-26T05:20:33.335Z,17.06
2019-04-26T05:21:33.352Z,17.12
2019-04-26T05:22:33.306Z,17.06
2019-04-26T05:23:33.299Z,17.08
2019-04-26T05:24:33.284Z,17.15
2019-04-26T05:25:33.296Z,17.07
2019-04-26T05:26:33.322Z,17.14
2019-04-26T05:27:33.254Z,17.14
2019-04-26T05:28:33.246Z,17.08
2019-04-26T05:29:33.233Z,17.12
2019-04-26T05:30:33.225Z,17.18
2019-04-26T05:31:33.237Z,17.18
2019-04-26T05:32:33.196Z,17.16
2019-04-26T05:33:33.182Z,17.16
2019-04-26T05:34:33.175Z,17.23
2019-04-26T05:35:33.179Z,17.11
2019-04-26T05:36:33.193Z,17.14
2019-04-26T05:37:33.167Z,17.19
2019-04-26T05:38:33.127Z,17.18
2019-04-26T05:39:33.129Z,17.18
2019-04-26T05:40:33.130Z,17.23
2019-04-26T05:41:33.130Z,17.23
2019-04-26T05:42:33.086Z,17.25
2019-04-26T05:43:33.102Z,17.26
2019-04-26T05:44:33.113Z,17.33
2019-04-26T05:45:33.056Z,17.23
2019-04-26T05:46:33.088Z,17.23
2019-04-26T05:47:33.027Z,17.23
2019-04-26T05:48:33.022Z,17.23
2019-04-26T05:49:33.020Z,17.28
2019-04-26T05:50:32.992Z,17.25
2019-04-26T05:51:33.014Z,17.36
2019-04-26T05:52:32.970Z,17.37
2019-04-26T05:53:32.975Z,17.36
2019-04-26T05:54:32.960Z,17.41
2019-04-26T05:55:32.937Z,17.34
2019-04-26T05:56:32.970Z,17.44
2019-04-26T05:57:32.925Z,17.48
2019-04-26T05:58:32.902Z,17.49
2019-04-26T05:59:32.901Z,17.48
2019-04-26T06:00:32.884Z,17.34
2019-04-26T06:01:32.869Z,17.43
2019-04-26T06:02:32.894Z,17.49
2019-04-26T06:03:32.855Z,17.44
2019-04-26T06:04:32.843Z,17.48
2019-04-26T06:05:32.847Z,17.51
2019-04-26T06:06:32.816Z,17.51
2019-04-26T06:07:32.843Z,17.51
2019-04-26T06:08:32.820Z,17.59
2019-04-26T06:09:32.796Z,17.56
2019-04-26T06:10:32.778Z,17.55
2019-04-26T06:11:32.767Z,17.63
2019-04-26T06:12:32.785Z,17.66
2019-04-26T06:13:32.735Z,17.64
2019-04-26T06:14:32.728Z,17.59
2019-04-26T06:15:32.714Z,17.75
2019-04-26T06:16:32.703Z,17.70
2019-04-26T06:17:33.730Z,17.70
2019-04-26T06:18:32.679Z,17.77
2019-04-26T06:19:32.674Z,17.75
2019-04-26T06:20:32.657Z,17.74
2019-04-26T06:21:32.646Z,17.82
2019-04-26T06:22:32.671Z,17.78
2019-04-26T06:23:32.624Z,17.75
2019-04-26T06:24:32.623Z,17.82
2019-04-26T06:25:32.609Z,17.81
2019-04-26T06:26:32.599Z,17.84
2019-04-26T06:27:32.617Z,17.93
2019-04-26T06:28:32.577Z,17.89
2019-04-26T06:29:32.817Z,17.95
2019-04-26T06:30:44.816Z,17.95
2019-04-26T06:31:33.533Z,17.99
2019-04-26T06:32:32.604Z,18.00
2019-04-26T06:33:32.520Z,18.07
2019-04-26T06:34:32.510Z,18.02
2019-04-26T06:35:32.495Z,18.10
2019-04-26T06:36:32.486Z,18.03
2019-04-26T06:37:32.545Z,17.99
2019-04-26T06:38:43.265Z,18.11
2019-04-26T06:39:33.452Z,18.12
2019-04-26T06:40:41.651Z,18.25
2019-04-26T06:41:33.430Z,18.14
2019-04-26T06:42:32.421Z,18.25
2019-04-26T06:43:32.453Z,18.12
2019-04-26T06:44:32.390Z,18.21
2019-04-26T06:45:32.381Z,18.32
2019-04-26T06:46:32.366Z,18.14
2019-04-26T06:47:32.362Z,18.23
2019-04-26T06:48:32.392Z,18.23
2019-04-26T06:49:32.340Z,18.27
2019-04-26T06:50:32.324Z,18.35
2019-04-26T06:51:32.315Z,18.30
2019-04-26T06:52:32.301Z,18.29
2019-04-26T06:53:32.319Z,18.32
2019-04-26T06:54:32.279Z,18.39
2019-04-26T06:55:32.273Z,18.41
2019-04-26T06:56:32.253Z,18.45
2019-04-26T06:57:32.249Z,18.47
2019-04-26T06:58:32.269Z,18.50
2019-04-26T06:59:36.489Z,18.55
2019-04-26T07:00:32.219Z,18.58
2019-04-26T07:01:32.201Z,18.67
2019-04-26T07:02:32.191Z,18.66
2019-04-26T07:03:32.205Z,18.63
2019-04-26T07:04:32.171Z,18.75
2019-04-26T07:05:32.160Z,18.78
2019-04-26T07:06:35.240Z,18.76
2019-04-26T07:07:32.137Z,18.82
2019-04-26T07:08:32.187Z,18.85
2019-04-26T07:09:32.112Z,18.85
2019-04-26T07:10:32.097Z,18.84
2019-04-26T07:11:32.086Z,18.85
2019-04-26T07:12:32.105Z,19.00
2019-04-26T07:13:32.069Z,19.02
2019-04-26T07:14:32.088Z,19.14
2019-04-26T07:15:32.047Z,19.23
2019-04-26T07:16:32.028Z,19.21
2019-04-26T07:17:32.029Z,19.32
2019-04-26T07:18:32.020Z,19.37
2019-04-26T07:19:32.026Z,19.54
2019-04-26T07:20:31.986Z,19.61
2019-04-26T07:21:31.979Z,19.69
2019-04-26T07:22:35.605Z,19.80
2019-04-26T07:23:31.955Z,19.81
2019-04-26T07:24:31.989Z,19.88
2019-04-26T07:25:31.933Z,19.96
2019-04-26T07:26:31.917Z,19.99
2019-04-26T07:27:31.910Z,20.06
2019-04-26T07:28:31.894Z,20.11
2019-04-26T07:29:31.921Z,20.17
2019-04-26T07:30:31.948Z,20.23
2019-04-26T07:31:31.866Z,20.29
2019-04-26T07:32:31.849Z,20.20
2019-04-26T07:33:31.837Z,20.26
2019-04-26T07:34:31.862Z,20.35
2019-04-26T07:35:31.815Z,20.29
2019-04-26T07:36:31.804Z,20.38
2019-04-26T07:37:31.796Z,20.38
2019-04-26T07:38:31.794Z,20.39
2019-04-26T07:39:31.816Z,20.38
2019-04-26T07:40:31.771Z,20.43
2019-04-26T07:41:31.756Z,20.43
2019-04-26T07:42:31.750Z,20.42
2019-04-26T07:43:31.744Z,20.50
2019-04-26T07:44:31.725Z,20.54
2019-04-26T07:45:31.738Z,20.55
2019-04-26T07:46:31.695Z,20.52
2019-04-26T07:47:31.701Z,20.54
2019-04-26T07:48:31.678Z,20.55
2019-04-26T07:49:31.663Z,20.59
2019-04-26T07:50:31.681Z,20.67
2019-04-26T07:51:31.641Z,20.57
2019-04-26T07:52:31.631Z,20.61
2019-04-26T07:53:31.615Z,20.72
2019-04-26T07:54:31.609Z,20.69
2019-04-26T07:55:31.629Z,20.80
2019-04-26T07:56:31.590Z,20.82
2019-04-26T07:57:31.576Z,20.80
2019-04-26T07:58:31.561Z,20.84
2019-04-26T07:59:31.558Z,20.87
2019-04-26T08:00:44.202Z,20.87
2019-04-26T08:01:32.524Z,20.89
2019-04-26T08:02:31.519Z,20.99
2019-04-26T08:03:31.506Z,20.99
2019-04-26T08:04:31.498Z,21.10
2019-04-26T08:05:31.521Z,21.13
2019-04-26T08:06:31.474Z,21.14
2019-04-26T08:07:31.459Z,21.27
2019-04-26T08:08:31.455Z,21.47
2019-04-26T08:09:31.442Z,21.40
2019-04-26T08:10:31.462Z,21.52
2019-04-26T08:11:31.428Z,21.54
2019-04-26T08:12:31.407Z,21.64
2019-04-26T08:13:31.397Z,21.53
2019-04-26T08:14:31.380Z,21.62
2019-04-26T08:15:31.443Z,21.72
2019-04-26T08:16:31.362Z,21.72
2019-04-26T08:17:31.354Z,21.77
2019-04-26T08:18:31.345Z,21.86
2019-04-26T08:19:31.406Z,21.94
2019-04-26T08:20:32.021Z,22.00
2019-04-26T08:21:32.022Z,22.02
2019-04-26T08:22:32.473Z,22.12
2019-04-26T08:23:39.521Z,22.17
2019-04-26T08:24:32.281Z,22.09
2019-04-26T08:25:31.270Z,22.17
2019-04-26T08:26:31.287Z,22.18
2019-04-26T08:27:31.266Z,22.22
2019-04-26T08:28:31.229Z,22.22
2019-04-26T08:29:33.304Z,22.17
2019-04-26T08:30:31.236Z,22.28
2019-04-26T08:31:31.261Z,22.28
2019-04-26T08:32:32.054Z,22.35
2019-04-26T08:33:31.172Z,22.28
2019-04-26T08:34:33.747Z,22.40
2019-04-26T08:35:31.156Z,22.43
2019-04-26T08:36:31.184Z,22.51
2019-04-26T08:37:32.267Z,22.54
2019-04-26T08:38:31.120Z,22.45
2019-04-26T08:39:44.481Z,22.43
2019-04-26T08:40:32.159Z,22.60
2019-04-26T08:41:31.122Z,22.57
2019-04-26T08:42:31.073Z,22.60
2019-04-26T08:43:31.907Z,22.58
2019-04-26T08:44:34.530Z,22.46
2019-04-26T08:45:31.041Z,22.60
2019-04-26T08:46:32.318Z,22.55
2019-04-26T08:47:31.010Z,22.64
2019-04-26T08:48:30.999Z,22.67
2019-04-26T08:49:30.996Z,22.68
2019-04-26T08:50:30.978Z,22.68
2019-04-26T08:51:31.009Z,22.77
2019-04-26T08:52:30.978Z,22.80
2019-04-26T08:53:30.945Z,22.85
2019-04-26T08:54:32.605Z,22.86
2019-04-26T08:55:30.925Z,22.90
2019-04-26T08:56:30.908Z,22.92
2019-04-26T08:57:30.933Z,22.91
2019-04-26T08:58:30.898Z,22.86
2019-04-26T08:59:30.882Z,22.90
2019-04-26T09:00:30.871Z,22.94
2019-04-26T09:01:30.852Z,22.94
2019-04-26T09:02:30.879Z,22.98
2019-04-26T09:03:32.435Z,22.98
2019-04-26T09:04:30.818Z,23.00
2019-04-26T09:05:30.813Z,23.00
2019-04-26T09:06:30.805Z,23.01
2019-04-26T09:07:30.826Z,23.07
2019-04-26T09:08:30.784Z,22.97
2019-04-26T09:09:32.375Z,23.10
2019-04-26T09:10:30.764Z,23.13
2019-04-26T09:11:33.905Z,23.12
2019-04-26T09:12:30.760Z,23.15
2019-04-26T09:13:30.722Z,23.10
2019-04-26T09:14:30.719Z,23.10
2019-04-26T09:15:30.705Z,23.16
2019-04-26T09:16:30.694Z,23.00
2019-04-26T09:17:32.328Z,23.04
2019-04-26T09:18:42.291Z,23.10
2019-04-26T09:19:32.245Z,23.15
2019-04-26T09:20:30.643Z,23.13
2019-04-26T09:21:30.636Z,23.16
2019-04-26T09:22:30.662Z,23.17
2019-04-26T09:23:39.953Z,23.20
2019-04-26T09:24:31.603Z,23.13
2019-04-26T09:25:34.587Z,23.13
2019-04-26T09:26:31.698Z,23.17
2019-04-26T09:27:30.612Z,23.15
2019-04-26T09:28:30.555Z,23.27
2019-04-26T09:29:32.086Z,23.16
2019-04-26T09:30:34.063Z,23.19
2019-04-26T09:31:30.538Z,23.10
2019-04-26T09:32:30.508Z,23.16
2019-04-26T09:33:31.851Z,23.13
2019-04-26T09:34:31.485Z,23.17
2019-04-26T09:35:30.482Z,23.15
2019-04-26T09:36:30.470Z,23.22
2019-04-26T09:37:30.458Z,23.13
2019-04-26T09:38:30.550Z,23.19
2019-04-26T09:39:30.481Z,23.22
2019-04-26T09:40:30.424Z,23.36
2019-04-26T09:41:30.830Z,23.36
2019-04-26T09:42:30.416Z,23.53
2019-04-26T09:43:30.423Z,23.68
2019-04-26T09:44:30.382Z,23.68
2019-04-26T09:45:30.365Z,23.80
2019-04-26T09:46:30.363Z,23.78
2019-04-26T09:47:30.362Z,23.84
2019-04-26T09:48:30.366Z,23.93
2019-04-26T09:49:30.329Z,23.88
2019-04-26T09:50:30.311Z,23.85
2019-04-26T09:51:30.305Z,23.97
2019-04-26T09:52:30.291Z,23.95
2019-04-26T09:53:30.332Z,24.00
2019-04-26T09:54:30.267Z,23.98
2019-04-26T09:55:35.714Z,24.06
2019-04-26T09:56:31.251Z,24.06
2019-04-26T09:57:30.238Z,24.18
2019-04-26T09:58:30.830Z,24.22
2019-04-26T09:59:30.220Z,24.24
2019-04-26T10:00:30.208Z,24.21
2019-04-26T10:01:30.193Z,24.24
2019-04-26T10:02:33.833Z,24.24
2019-04-26T10:03:31.226Z,24.21
2019-04-26T10:04:30.171Z,24.35
2019-04-26T10:05:30.164Z,24.42
2019-04-26T10:06:30.980Z,24.47
2019-04-26T10:07:33.418Z,24.49
2019-04-26T10:08:31.141Z,24.49
2019-04-26T10:09:30.971Z,24.47
2019-04-26T10:10:31.034Z,24.53
2019-04-26T10:11:30.081Z,24.52
2019-04-26T10:12:30.070Z,24.57
2019-04-26T10:13:30.132Z,24.55
2019-04-26T10:14:30.050Z,24.52
2019-04-26T10:15:30.038Z,24.50
2019-04-26T10:16:33.576Z,24.49
2019-04-26T10:17:31.016Z,24.35
2019-04-26T10:18:30.051Z,24.37
2019-04-26T10:19:31.644Z,24.46
2019-04-26T10:20:29.985Z,24.50
2019-04-26T10:21:29.969Z,24.53
2019-04-26T10:22:29.956Z,24.49
2019-04-26T10:23:29.996Z,24.47
2019-04-26T10:24:29.954Z,24.43
2019-04-26T10:25:29.943Z,24.28
2019-04-26T10:26:30.021Z,24.27
2019-04-26T10:27:32.377Z,24.09
2019-04-26T10:28:29.940Z,24.05
2019-04-26T10:29:29.926Z,24.13
2019-04-26T10:30:29.875Z,24.08
2019-04-26T10:31:29.861Z,24.22
2019-04-26T10:32:29.844Z,24.31
2019-04-26T10:33:32.645Z,24.35
2019-04-26T10:34:30.854Z,24.39
2019-04-26T10:35:29.831Z,24.39
2019-04-26T10:36:31.227Z,24.39
2019-04-26T10:37:39.183Z,24.27
2019-04-26T10:38:30.777Z,24.22
2019-04-26T10:39:32.474Z,24.35
2019-04-26T10:40:35.788Z,24.32
2019-04-26T10:41:30.754Z,24.32
2019-04-26T10:42:29.746Z,24.34
2019-04-26T10:43:29.722Z,24.34
2019-04-26T10:44:29.741Z,24.47
2019-04-26T10:45:29.707Z,24.53
2019-04-26T10:46:29.694Z,24.62
2019-04-26T10:47:29.696Z,24.58
2019-04-26T10:48:29.695Z,24.53
2019-04-26T10:49:29.727Z,24.57
2019-04-26T10:50:33.125Z,24.68
2019-04-26T10:51:29.636Z,24.65
2019-04-26T10:52:29.623Z,24.76
2019-04-26T10:53:30.349Z,25.24
2019-04-26T10:54:29.635Z,25.95
2019-04-26T10:55:29.592Z,27.29
2019-04-26T10:56:29.576Z,28.44
2019-04-26T10:57:29.570Z,29.55
2019-04-26T10:58:31.944Z,30.46
2019-04-26T10:59:31.891Z,31.35
2019-04-26T11:00:29.538Z,32.23
2019-04-26T11:01:29.530Z,32.40
2019-04-26T11:02:29.527Z,32.43
2019-04-26T11:03:29.516Z,32.94
2019-04-26T11:04:29.550Z,33.78
2019-04-26T11:05:29.480Z,34.75
2019-04-26T11:06:29.471Z,35.71
2019-04-26T11:07:29.462Z,36.32
2019-04-26T11:08:29.458Z,37.10
2019-04-26T11:09:29.442Z,36.93
2019-04-26T11:10:29.463Z,36.64
2019-04-26T11:11:29.419Z,35.84
2019-04-26T11:12:29.413Z,35.55
2019-04-26T11:13:29.403Z,35.66
2019-04-26T11:14:29.397Z,36.15
2019-04-26T11:15:32.737Z,36.19
2019-04-26T11:16:29.391Z,35.93
2019-04-26T11:17:29.374Z,36.03
2019-04-26T11:18:29.361Z,36.38
2019-04-26T11:19:31.953Z,36.72
2019-04-26T11:20:30.379Z,36.80
2019-04-26T11:21:29.330Z,37.28
2019-04-26T11:22:33.133Z,37.49
2019-04-26T11:23:29.320Z,37.76
2019-04-26T11:24:29.300Z,37.81
2019-04-26T11:25:29.560Z,37.91
2019-04-26T11:26:31.091Z,38.26
2019-04-26T11:27:30.283Z,38.98
2019-04-26T11:28:29.269Z,38.96
2019-04-26T11:29:30.224Z,38.83
2019-04-26T11:30:29.284Z,38.42
2019-04-26T11:31:29.357Z,38.86
2019-04-26T11:32:29.234Z,39.07
2019-04-26T11:33:29.232Z,38.47
2019-04-26T11:34:29.322Z,38.56
2019-04-26T11:35:33.017Z,37.93
2019-04-26T11:36:30.214Z,37.27
2019-04-26T11:37:29.190Z,37.22
2019-04-26T11:38:31.259Z,37.91
2019-04-26T11:39:29.209Z,38.71
2019-04-26T11:40:29.286Z,38.72
2019-04-26T11:41:29.157Z,38.86
2019-04-26T11:42:29.156Z,38.32
2019-04-26T11:43:29.150Z,37.66
2019-04-26T11:44:29.135Z,37.13
2019-04-26T11:45:29.214Z,36.23
2019-04-26T11:46:30.310Z,35.89
2019-04-26T11:47:29.130Z,36.47
2019-04-26T11:48:30.598Z,36.93
2019-04-26T11:49:29.100Z,37.03
2019-04-26T11:50:29.099Z,37.05
2019-04-26T11:51:29.118Z,37.03
2019-04-26T11:52:32.140Z,36.44
2019-04-26T11:53:30.068Z,35.72
2019-04-26T11:54:29.057Z,35.99
2019-04-26T11:55:29.767Z,35.90
2019-04-26T11:56:29.074Z,35.78
2019-04-26T11:57:29.039Z,35.63
2019-04-26T11:58:29.023Z,35.28
2019-04-26T11:59:30.583Z,34.30
2019-04-26T12:00:29.000Z,33.98
2019-04-26T12:01:29.031Z,32.99
2019-04-26T12:02:28.991Z,32.43
2019-04-26T12:03:28.980Z,31.70
2019-04-26T12:04:28.969Z,31.46
2019-04-26T12:05:28.972Z,31.04
2019-04-26T12:06:28.987Z,30.80
2019-04-26T12:07:28.980Z,30.76
2019-04-26T12:08:28.933Z,30.65
2019-04-26T12:09:28.925Z,30.55
2019-04-26T12:10:28.908Z,30.75
2019-04-26T12:11:34.234Z,30.65
2019-04-26T12:12:29.902Z,30.16
2019-04-26T12:13:28.905Z,30.22
2019-04-26T12:14:29.552Z,30.73
2019-04-26T12:15:30.533Z,30.73
2019-04-26T12:16:28.924Z,30.76
2019-04-26T12:17:31.222Z,30.54
2019-04-26T12:18:29.933Z,30.37
2019-04-26T12:19:28.825Z,30.29
2019-04-26T12:20:28.829Z,30.22
2019-04-26T12:21:30.508Z,29.83
2019-04-26T12:22:28.789Z,29.45
2019-04-26T12:23:28.789Z,28.86
2019-04-26T12:24:29.996Z,28.66
2019-04-26T12:25:30.992Z,28.34
2019-04-26T12:26:28.780Z,28.07
2019-04-26T12:27:30.710Z,27.79
2019-04-26T12:28:28.735Z,27.60
2019-04-26T12:29:28.717Z,27.22
2019-04-26T12:30:28.712Z,26.97
2019-04-26T12:31:28.731Z,26.88
2019-04-26T12:32:28.685Z,26.92
2019-04-26T12:33:28.677Z,26.85
2019-04-26T12:34:28.689Z,26.72
2019-04-26T12:35:30.099Z,26.44
2019-04-26T12:36:28.639Z,26.30
2019-04-26T12:37:28.666Z,26.23
2019-04-26T12:38:30.031Z,26.07
2019-04-26T12:39:32.242Z,25.95
2019-04-26T12:40:29.606Z,25.92
2019-04-26T12:41:39.785Z,25.97
2019-04-26T12:42:29.617Z,25.88
2019-04-26T12:43:28.563Z,25.99
2019-04-26T12:44:32.161Z,25.99
2019-04-26T12:45:29.544Z,26.07
2019-04-26T12:46:29.661Z,26.18
2019-04-26T12:47:30.590Z,26.36
2019-04-26T12:48:28.514Z,26.29
2019-04-26T12:49:28.503Z,26.45
2019-04-26T12:50:29.393Z,26.52
2019-04-26T12:51:29.483Z,26.55
2019-04-26T12:52:28.507Z,26.51